sensor_id;sensor_type;location;lat;lon;timestamp;P1;durP1;ratioP1;P2;durP2;ratioP2
52586;SDS011;38480;52.724;6.436;2023-04-29T00:02:05;125.63;;;53.43;;
52586;SDS011;38480;52.724;6.436;2023-04-29T00:04:31;149.20;;;56.87;;
52586;SDS011;38480;52.724;6.436;2023-04-29T00:06:58;152.77;;;59.37;;
52586;SDS011;38480;52.724;6.436;2023-04-29T00:09:24;147.90;;;58.67;;
52586;SDS011;38480;52.724;6.436;2023-04-29T00:11:50;122.53;;;51.60;;
52586;SDS011;38480;52.724;6.436;2023-04-29T00:14:16;130.83;;;54.70;;
52586;SDS011;38480;52.724;6.436;2023-04-29T00:16:42;137.63;;;55.27;;
52586;SDS011;38480;52.724;6.436;2023-04-29T00:19:08;118.70;;;53.00;;
52586;SDS011;38480;52.724;6.436;2023-04-29T00:21:35;110.63;;;52.73;;
52586;SDS011;38480;52.724;6.436;2023-04-29T00:24:01;124.43;;;52.43;;
52586;SDS011;38480;52.724;6.436;2023-04-29T00:26:27;135.70;;;54.87;;
52586;SDS011;38480;52.724;6.436;2023-04-29T00:28:53;132.87;;;57.13;;
52586;SDS011;38480;52.724;6.436;2023-04-29T00:31:19;129.73;;;54.70;;
52586;SDS011;38480;52.724;6.436;2023-04-29T00:33:45;93.93;;;47.13;;
52586;SDS011;38480;52.724;6.436;2023-04-29T00:36:11;120.77;;;52.90;;
52586;SDS011;38480;52.724;6.436;2023-04-29T00:38:37;129.10;;;54.70;;
52586;SDS011;38480;52.724;6.436;2023-04-29T00:41:03;98.83;;;47.90;;
52586;SDS011;38480;52.724;6.436;2023-04-29T00:43:29;110.83;;;49.73;;
52586;SDS011;38480;52.724;6.436;2023-04-29T00:45:56;95.17;;;45.60;;
52586;SDS011;38480;52.724;6.436;2023-04-29T00:48:22;103.33;;;46.90;;
52586;SDS011;38480;52.724;6.436;2023-04-29T00:50:48;95.00;;;47.30;;
52586;SDS011;38480;52.724;6.436;2023-04-29T00:53:15;108.57;;;50.90;;
52586;SDS011;38480;52.724;6.436;2023-04-29T00:55:42;87.07;;;44.13;;
52586;SDS011;38480;52.724;6.436;2023-04-29T00:58:08;104.53;;;46.53;;
52586;SDS011;38480;52.724;6.436;2023-04-29T01:00:35;91.63;;;45.03;;
52586;SDS011;38480;52.724;6.436;2023-04-29T01:03:03;102.53;;;47.10;;
52586;SDS011;38480;52.724;6.436;2023-04-29T01:05:29;97.87;;;46.73;;
52586;SDS011;38480;52.724;6.436;2023-04-29T01:10:43;103.27;;;47.60;;
52586;SDS011;38480;52.724;6.436;2023-04-29T01:13:13;103.50;;;46.87;;
52586;SDS011;38480;52.724;6.436;2023-04-29T01:16:01;95.00;;;44.93;;
52586;SDS011;38480;52.724;6.436;2023-04-29T01:18:36;94.47;;;43.87;;
52586;SDS011;38480;52.724;6.436;2023-04-29T01:21:04;99.35;;;44.65;;
52586;SDS011;38480;52.724;6.436;2023-04-29T01:23:30;90.93;;;44.37;;
52586;SDS011;38480;52.724;6.436;2023-04-29T01:25:56;101.83;;;46.43;;
52586;SDS011;38480;52.724;6.436;2023-04-29T01:30:56;109.17;;;48.40;;
52586;SDS011;38480;52.724;6.436;2023-04-29T01:33:31;106.47;;;47.88;;
52586;SDS011;38480;52.724;6.436;2023-04-29T01:36:18;109.67;;;49.93;;
52586;SDS011;38480;52.724;6.436;2023-04-29T01:38:48;104.90;;;48.70;;
52586;SDS011;38480;52.724;6.436;2023-04-29T01:41:18;102.40;;;47.63;;
52586;SDS011;38480;52.724;6.436;2023-04-29T01:43:49;130.43;;;52.60;;
52586;SDS011;38480;52.724;6.436;2023-04-29T01:46:15;120.17;;;50.93;;
52586;SDS011;38480;52.724;6.436;2023-04-29T01:48:45;123.87;;;51.50;;
52586;SDS011;38480;52.724;6.436;2023-04-29T01:51:11;118.63;;;48.67;;
52586;SDS011;38480;52.724;6.436;2023-04-29T01:53:37;102.87;;;49.60;;
52586;SDS011;38480;52.724;6.436;2023-04-29T01:56:05;106.30;;;47.63;;
52586;SDS011;38480;52.724;6.436;2023-04-29T01:58:31;120.90;;;49.20;;
52586;SDS011;38480;52.724;6.436;2023-04-29T02:00:57;122.73;;;51.30;;
52586;SDS011;38480;52.724;6.436;2023-04-29T02:03:23;114.60;;;49.63;;
52586;SDS011;38480;52.724;6.436;2023-04-29T02:05:49;112.93;;;48.13;;
52586;SDS011;38480;52.724;6.436;2023-04-29T02:08:16;129.20;;;54.00;;
52586;SDS011;38480;52.724;6.436;2023-04-29T02:10:50;124.47;;;51.37;;
52586;SDS011;38480;52.724;6.436;2023-04-29T02:13:16;108.67;;;48.67;;
52586;SDS011;38480;52.724;6.436;2023-04-29T02:15:42;127.23;;;50.40;;
52586;SDS011;38480;52.724;6.436;2023-04-29T02:18:08;116.03;;;48.93;;
52586;SDS011;38480;52.724;6.436;2023-04-29T02:20:34;119.17;;;50.23;;
52586;SDS011;38480;52.724;6.436;2023-04-29T02:23:00;106.93;;;47.03;;
52586;SDS011;38480;52.724;6.436;2023-04-29T02:25:27;114.60;;;47.10;;
52586;SDS011;38480;52.724;6.436;2023-04-29T02:27:53;101.83;;;47.33;;
52586;SDS011;38480;52.724;6.436;2023-04-29T02:30:19;95.27;;;43.83;;
52586;SDS011;38480;52.724;6.436;2023-04-29T02:32:45;90.87;;;41.03;;
52586;SDS011;38480;52.724;6.436;2023-04-29T02:35:11;101.83;;;45.93;;
52586;SDS011;38480;52.724;6.436;2023-04-29T02:37:37;78.67;;;38.80;;
52586;SDS011;38480;52.724;6.436;2023-04-29T02:40:03;86.03;;;41.33;;
52586;SDS011;38480;52.724;6.436;2023-04-29T02:42:30;88.60;;;39.80;;
52586;SDS011;38480;52.724;6.436;2023-04-29T02:44:56;93.50;;;43.10;;
52586;SDS011;38480;52.724;6.436;2023-04-29T02:47:22;94.00;;;41.20;;
52586;SDS011;38480;52.724;6.436;2023-04-29T02:49:48;82.30;;;40.37;;
52586;SDS011;38480;52.724;6.436;2023-04-29T02:52:14;102.53;;;44.80;;
52586;SDS011;38480;52.724;6.436;2023-04-29T02:54:41;95.57;;;44.73;;
52586;SDS011;38480;52.724;6.436;2023-04-29T02:57:07;90.37;;;42.57;;
52586;SDS011;38480;52.724;6.436;2023-04-29T02:59:33;94.23;;;43.50;;
52586;SDS011;38480;52.724;6.436;2023-04-29T03:02:00;95.77;;;42.30;;
52586;SDS011;38480;52.724;6.436;2023-04-29T03:04:26;86.23;;;41.43;;
52586;SDS011;38480;52.724;6.436;2023-04-29T03:06:55;87.37;;;40.63;;
52586;SDS011;38480;52.724;6.436;2023-04-29T03:09:22;97.03;;;43.20;;
52586;SDS011;38480;52.724;6.436;2023-04-29T03:11:48;101.50;;;42.90;;
52586;SDS011;38480;52.724;6.436;2023-04-29T03:14:14;84.10;;;39.67;;
52586;SDS011;38480;52.724;6.436;2023-04-29T03:16:41;81.97;;;39.03;;
52586;SDS011;38480;52.724;6.436;2023-04-29T03:19:07;90.60;;;40.00;;
52586;SDS011;38480;52.724;6.436;2023-04-29T03:21:33;97.07;;;39.90;;
52586;SDS011;38480;52.724;6.436;2023-04-29T03:23:59;84.10;;;39.07;;
52586;SDS011;38480;52.724;6.436;2023-04-29T03:26:25;94.93;;;41.17;;
52586;SDS011;38480;52.724;6.436;2023-04-29T03:28:51;84.17;;;40.83;;
52586;SDS011;38480;52.724;6.436;2023-04-29T03:31:17;91.30;;;40.20;;
52586;SDS011;38480;52.724;6.436;2023-04-29T03:33:45;110.33;;;42.97;;
52586;SDS011;38480;52.724;6.436;2023-04-29T03:36:11;89.40;;;40.03;;
52586;SDS011;38480;52.724;6.436;2023-04-29T03:38:37;96.20;;;41.80;;
52586;SDS011;38480;52.724;6.436;2023-04-29T03:41:03;85.73;;;37.30;;
52586;SDS011;38480;52.724;6.436;2023-04-29T03:43:30;86.73;;;40.13;;
52586;SDS011;38480;52.724;6.436;2023-04-29T03:45:56;87.10;;;38.27;;
52586;SDS011;38480;52.724;6.436;2023-04-29T03:48:22;70.93;;;35.93;;
52586;SDS011;38480;52.724;6.436;2023-04-29T03:50:48;76.67;;;36.80;;
52586;SDS011;38480;52.724;6.436;2023-04-29T03:53:15;64.73;;;34.97;;
52586;SDS011;38480;52.724;6.436;2023-04-29T03:55:41;77.97;;;37.10;;
52586;SDS011;38480;52.724;6.436;2023-04-29T03:58:07;90.03;;;40.37;;
52586;SDS011;38480;52.724;6.436;2023-04-29T04:00:33;82.13;;;40.23;;
52586;SDS011;38480;52.724;6.436;2023-04-29T04:02:59;70.87;;;36.60;;
52586;SDS011;38480;52.724;6.436;2023-04-29T04:05:25;98.77;;;40.23;;
52586;SDS011;38480;52.724;6.436;2023-04-29T04:07:51;79.47;;;39.03;;
52586;SDS011;38480;52.724;6.436;2023-04-29T04:10:18;92.67;;;38.43;;
52586;SDS011;38480;52.724;6.436;2023-04-29T04:12:44;92.37;;;39.63;;
52586;SDS011;38480;52.724;6.436;2023-04-29T04:15:11;83.60;;;37.27;;
52586;SDS011;38480;52.724;6.436;2023-04-29T04:17:37;83.83;;;38.43;;
52586;SDS011;38480;52.724;6.436;2023-04-29T04:20:04;93.17;;;40.50;;
52586;SDS011;38480;52.724;6.436;2023-04-29T04:22:30;85.30;;;39.47;;
52586;SDS011;38480;52.724;6.436;2023-04-29T04:24:56;100.60;;;40.67;;
52586;SDS011;38480;52.724;6.436;2023-04-29T04:27:22;96.33;;;40.87;;
52586;SDS011;38480;52.724;6.436;2023-04-29T04:29:52;98.57;;;40.63;;
52586;SDS011;38480;52.724;6.436;2023-04-29T04:32:18;94.33;;;40.67;;
52586;SDS011;38480;52.724;6.436;2023-04-29T04:34:44;99.40;;;39.33;;
52586;SDS011;38480;52.724;6.436;2023-04-29T04:37:10;84.03;;;37.33;;
52586;SDS011;38480;52.724;6.436;2023-04-29T04:39:37;85.37;;;37.63;;
52586;SDS011;38480;52.724;6.436;2023-04-29T04:42:03;94.07;;;38.73;;
52586;SDS011;38480;52.724;6.436;2023-04-29T04:44:29;95.13;;;41.10;;
52586;SDS011;38480;52.724;6.436;2023-04-29T04:46:56;78.97;;;37.47;;
52586;SDS011;38480;52.724;6.436;2023-04-29T04:49:22;100.97;;;39.40;;
52586;SDS011;38480;52.724;6.436;2023-04-29T04:51:51;80.23;;;35.13;;
52586;SDS011;38480;52.724;6.436;2023-04-29T04:54:18;79.40;;;34.87;;
52586;SDS011;38480;52.724;6.436;2023-04-29T04:56:44;82.03;;;35.30;;
52586;SDS011;38480;52.724;6.436;2023-04-29T04:59:10;79.97;;;35.43;;
52586;SDS011;38480;52.724;6.436;2023-04-29T05:01:36;87.43;;;36.43;;
52586;SDS011;38480;52.724;6.436;2023-04-29T05:04:02;75.50;;;34.57;;
52586;SDS011;38480;52.724;6.436;2023-04-29T05:06:28;68.40;;;32.17;;
52586;SDS011;38480;52.724;6.436;2023-04-29T05:08:54;68.30;;;31.53;;
52586;SDS011;38480;52.724;6.436;2023-04-29T05:11:20;71.87;;;32.10;;
52586;SDS011;38480;52.724;6.436;2023-04-29T05:13:47;71.70;;;32.47;;
52586;SDS011;38480;52.724;6.436;2023-04-29T05:16:13;72.93;;;30.77;;
52586;SDS011;38480;52.724;6.436;2023-04-29T05:18:41;76.87;;;30.73;;
52586;SDS011;38480;52.724;6.436;2023-04-29T05:21:09;60.43;;;27.57;;
52586;SDS011;38480;52.724;6.436;2023-04-29T05:23:35;73.53;;;31.30;;
52586;SDS011;38480;52.724;6.436;2023-04-29T05:26:01;71.90;;;31.53;;
52586;SDS011;38480;52.724;6.436;2023-04-29T05:28:27;66.90;;;29.37;;
52586;SDS011;38480;52.724;6.436;2023-04-29T05:30:53;66.10;;;29.53;;
52586;SDS011;38480;52.724;6.436;2023-04-29T05:33:20;69.13;;;30.07;;
52586;SDS011;38480;52.724;6.436;2023-04-29T05:35:46;75.37;;;30.93;;
52586;SDS011;38480;52.724;6.436;2023-04-29T05:38:12;49.20;;;27.30;;
52586;SDS011;38480;52.724;6.436;2023-04-29T05:40:38;68.93;;;29.93;;
52586;SDS011;38480;52.724;6.436;2023-04-29T05:43:04;63.20;;;28.30;;
52586;SDS011;38480;52.724;6.436;2023-04-29T05:45:31;60.80;;;26.43;;
52586;SDS011;38480;52.724;6.436;2023-04-29T05:47:57;62.63;;;27.40;;
52586;SDS011;38480;52.724;6.436;2023-04-29T05:50:23;55.47;;;26.07;;
52586;SDS011;38480;52.724;6.436;2023-04-29T05:52:49;59.07;;;27.57;;
52586;SDS011;38480;52.724;6.436;2023-04-29T05:55:16;56.00;;;26.83;;
52586;SDS011;38480;52.724;6.436;2023-04-29T05:57:42;52.07;;;24.33;;
52586;SDS011;38480;52.724;6.436;2023-04-29T06:00:08;55.10;;;23.50;;
52586;SDS011;38480;52.724;6.436;2023-04-29T06:02:34;51.37;;;25.17;;
52586;SDS011;38480;52.724;6.436;2023-04-29T06:05:00;44.00;;;22.27;;
52586;SDS011;38480;52.724;6.436;2023-04-29T06:07:26;44.33;;;22.20;;
52586;SDS011;38480;52.724;6.436;2023-04-29T06:09:52;44.90;;;21.53;;
52586;SDS011;38480;52.724;6.436;2023-04-29T06:12:19;48.83;;;21.93;;
52586;SDS011;38480;52.724;6.436;2023-04-29T06:14:45;43.17;;;21.13;;
52586;SDS011;38480;52.724;6.436;2023-04-29T06:17:11;45.93;;;22.33;;
52586;SDS011;38480;52.724;6.436;2023-04-29T06:19:37;58.53;;;22.90;;
52586;SDS011;38480;52.724;6.436;2023-04-29T06:22:03;39.33;;;20.53;;
52586;SDS011;38480;52.724;6.436;2023-04-29T06:24:29;42.27;;;18.80;;
52586;SDS011;38480;52.724;6.436;2023-04-29T06:26:58;47.90;;;22.77;;
52586;SDS011;38480;52.724;6.436;2023-04-29T06:29:24;34.60;;;18.93;;
52586;SDS011;38480;52.724;6.436;2023-04-29T06:31:50;43.17;;;19.80;;
52586;SDS011;38480;52.724;6.436;2023-04-29T06:34:18;35.17;;;18.83;;
52586;SDS011;38480;52.724;6.436;2023-04-29T06:36:44;39.53;;;19.50;;
52586;SDS011;38480;52.724;6.436;2023-04-29T06:39:10;36.80;;;18.30;;
52586;SDS011;38480;52.724;6.436;2023-04-29T06:41:36;27.30;;;17.53;;
52586;SDS011;38480;52.724;6.436;2023-04-29T06:44:02;30.73;;;17.07;;
52586;SDS011;38480;52.724;6.436;2023-04-29T06:46:28;38.93;;;18.40;;
52586;SDS011;38480;52.724;6.436;2023-04-29T06:48:54;30.07;;;16.87;;
52586;SDS011;38480;52.724;6.436;2023-04-29T06:51:21;29.83;;;16.77;;
52586;SDS011;38480;52.724;6.436;2023-04-29T06:53:47;28.03;;;15.90;;
52586;SDS011;38480;52.724;6.436;2023-04-29T06:56:13;29.57;;;15.60;;
52586;SDS011;38480;52.724;6.436;2023-04-29T06:58:39;27.73;;;17.23;;
52586;SDS011;38480;52.724;6.436;2023-04-29T07:01:05;24.57;;;16.50;;
52586;SDS011;38480;52.724;6.436;2023-04-29T07:03:32;24.57;;;15.47;;
52586;SDS011;38480;52.724;6.436;2023-04-29T07:05:58;18.47;;;12.63;;
52586;SDS011;38480;52.724;6.436;2023-04-29T07:08:24;22.30;;;12.87;;
52586;SDS011;38480;52.724;6.436;2023-04-29T07:10:55;18.97;;;11.63;;
52586;SDS011;38480;52.724;6.436;2023-04-29T07:13:22;26.00;;;12.30;;
52586;SDS011;38480;52.724;6.436;2023-04-29T07:15:48;22.97;;;12.03;;
52586;SDS011;38480;52.724;6.436;2023-04-29T07:18:14;19.20;;;11.37;;
52586;SDS011;38480;52.724;6.436;2023-04-29T07:20:40;26.63;;;13.17;;
52586;SDS011;38480;52.724;6.436;2023-04-29T07:23:07;21.70;;;12.83;;
52586;SDS011;38480;52.724;6.436;2023-04-29T07:25:33;17.00;;;11.67;;
52586;SDS011;38480;52.724;6.436;2023-04-29T07:28:00;16.70;;;11.57;;
52586;SDS011;38480;52.724;6.436;2023-04-29T07:30:26;21.20;;;11.07;;
52586;SDS011;38480;52.724;6.436;2023-04-29T07:32:52;18.73;;;12.50;;
52586;SDS011;38480;52.724;6.436;2023-04-29T07:35:18;20.63;;;11.83;;
52586;SDS011;38480;52.724;6.436;2023-04-29T07:37:44;19.07;;;10.63;;
52586;SDS011;38480;52.724;6.436;2023-04-29T07:40:11;16.03;;;9.77;;
52586;SDS011;38480;52.724;6.436;2023-04-29T07:42:37;16.63;;;11.13;;
52586;SDS011;38480;52.724;6.436;2023-04-29T07:45:03;18.23;;;10.00;;
52586;SDS011;38480;52.724;6.436;2023-04-29T07:47:29;17.30;;;11.30;;
52586;SDS011;38480;52.724;6.436;2023-04-29T07:49:55;17.23;;;11.37;;
52586;SDS011;38480;52.724;6.436;2023-04-29T07:52:22;15.80;;;10.50;;
52586;SDS011;38480;52.724;6.436;2023-04-29T07:54:48;20.03;;;12.27;;
52586;SDS011;38480;52.724;6.436;2023-04-29T07:57:14;19.40;;;11.70;;
52586;SDS011;38480;52.724;6.436;2023-04-29T07:59:40;19.87;;;11.70;;
52586;SDS011;38480;52.724;6.436;2023-04-29T08:02:06;14.80;;;10.87;;
52586;SDS011;38480;52.724;6.436;2023-04-29T08:04:32;14.77;;;10.33;;
52586;SDS011;38480;52.724;6.436;2023-04-29T08:06:58;16.50;;;9.13;;
52586;SDS011;38480;52.724;6.436;2023-04-29T08:09:24;16.20;;;9.43;;
52586;SDS011;38480;52.724;6.436;2023-04-29T08:11:51;13.83;;;9.00;;
52586;SDS011;38480;52.724;6.436;2023-04-29T08:14:17;13.27;;;7.90;;
52586;SDS011;38480;52.724;6.436;2023-04-29T08:16:43;12.63;;;8.67;;
52586;SDS011;38480;52.724;6.436;2023-04-29T08:19:09;13.23;;;7.50;;
52586;SDS011;38480;52.724;6.436;2023-04-29T08:21:35;21.07;;;8.83;;
52586;SDS011;38480;52.724;6.436;2023-04-29T08:24:01;12.60;;;8.53;;
52586;SDS011;38480;52.724;6.436;2023-04-29T08:26:27;12.70;;;8.37;;
52586;SDS011;38480;52.724;6.436;2023-04-29T08:28:54;12.90;;;7.53;;
52586;SDS011;38480;52.724;6.436;2023-04-29T08:31:20;13.43;;;7.57;;
52586;SDS011;38480;52.724;6.436;2023-04-29T08:33:47;10.90;;;7.30;;
52586;SDS011;38480;52.724;6.436;2023-04-29T08:36:13;14.63;;;7.73;;
52586;SDS011;38480;52.724;6.436;2023-04-29T08:38:39;12.80;;;7.53;;
52586;SDS011;38480;52.724;6.436;2023-04-29T08:41:08;12.47;;;7.70;;
52586;SDS011;38480;52.724;6.436;2023-04-29T08:43:35;10.47;;;7.23;;
52586;SDS011;38480;52.724;6.436;2023-04-29T08:46:02;11.10;;;6.93;;
52586;SDS011;38480;52.724;6.436;2023-04-29T08:48:29;12.00;;;8.20;;
52586;SDS011;38480;52.724;6.436;2023-04-29T08:50:55;11.80;;;6.87;;
52586;SDS011;38480;52.724;6.436;2023-04-29T08:53:26;8.97;;;6.07;;
52586;SDS011;38480;52.724;6.436;2023-04-29T08:55:52;14.00;;;7.53;;
52586;SDS011;38480;52.724;6.436;2023-04-29T08:58:19;10.67;;;6.53;;
52586;SDS011;38480;52.724;6.436;2023-04-29T09:00:45;9.40;;;6.00;;
52586;SDS011;38480;52.724;6.436;2023-04-29T09:05:41;10.50;;;6.20;;
52586;SDS011;38480;52.724;6.436;2023-04-29T09:08:08;10.83;;;6.60;;
52586;SDS011;38480;52.724;6.436;2023-04-29T09:10:36;13.30;;;7.10;;
52586;SDS011;38480;52.724;6.436;2023-04-29T09:13:02;8.90;;;6.50;;
52586;SDS011;38480;52.724;6.436;2023-04-29T09:15:28;8.90;;;5.37;;
52586;SDS011;38480;52.724;6.436;2023-04-29T09:17:54;8.07;;;5.60;;
52586;SDS011;38480;52.724;6.436;2023-04-29T09:22:57;7.50;;;5.43;;
52586;SDS011;38480;52.724;6.436;2023-04-29T09:25:23;9.00;;;6.10;;
52586;SDS011;38480;52.724;6.436;2023-04-29T09:27:51;8.57;;;5.83;;
52586;SDS011;38480;52.724;6.436;2023-04-29T09:30:17;10.47;;;5.87;;
52586;SDS011;38480;52.724;6.436;2023-04-29T09:32:44;8.80;;;5.27;;
52586;SDS011;38480;52.724;6.436;2023-04-29T09:35:21;8.67;;;5.73;;
52586;SDS011;38480;52.724;6.436;2023-04-29T09:37:50;9.33;;;5.47;;
52586;SDS011;38480;52.724;6.436;2023-04-29T09:40:33;7.77;;;4.87;;
52586;SDS011;38480;52.724;6.436;2023-04-29T09:43:00;10.97;;;5.57;;
52586;SDS011;38480;52.724;6.436;2023-04-29T09:45:35;9.67;;;6.13;;
52586;SDS011;38480;52.724;6.436;2023-04-29T09:48:02;8.77;;;5.37;;
52586;SDS011;38480;52.724;6.436;2023-04-29T09:50:29;8.80;;;5.50;;
52586;SDS011;38480;52.724;6.436;2023-04-29T09:52:56;7.67;;;4.97;;
52586;SDS011;38480;52.724;6.436;2023-04-29T09:55:22;9.63;;;4.73;;
52586;SDS011;38480;52.724;6.436;2023-04-29T09:57:48;10.77;;;4.90;;
52586;SDS011;38480;52.724;6.436;2023-04-29T10:00:15;5.83;;;4.30;;
52586;SDS011;38480;52.724;6.436;2023-04-29T10:02:41;7.43;;;5.07;;
52586;SDS011;38480;52.724;6.436;2023-04-29T10:05:08;7.87;;;4.83;;
52586;SDS011;38480;52.724;6.436;2023-04-29T10:07:35;7.43;;;4.57;;
52586;SDS011;38480;52.724;6.436;2023-04-29T10:10:04;12.13;;;5.50;;
52586;SDS011;38480;52.724;6.436;2023-04-29T10:12:32;9.83;;;5.23;;
52586;SDS011;38480;52.724;6.436;2023-04-29T10:15:03;11.67;;;5.30;;
52586;SDS011;38480;52.724;6.436;2023-04-29T10:17:35;9.40;;;4.55;;
52586;SDS011;38480;52.724;6.436;2023-04-29T10:20:04;7.07;;;5.00;;
52586;SDS011;38480;52.724;6.436;2023-04-29T10:22:46;10.07;;;5.27;;
52586;SDS011;38480;52.724;6.436;2023-04-29T10:25:19;8.60;;;4.70;;
52586;SDS011;38480;52.724;6.436;2023-04-29T10:27:46;8.57;;;4.85;;
52586;SDS011;38480;52.724;6.436;2023-04-29T10:30:13;8.33;;;4.70;;
52586;SDS011;38480;52.724;6.436;2023-04-29T10:32:40;10.73;;;4.80;;
52586;SDS011;38480;52.724;6.436;2023-04-29T10:35:10;10.97;;;4.60;;
52586;SDS011;38480;52.724;6.436;2023-04-29T10:37:38;6.80;;;4.13;;
52586;SDS011;38480;52.724;6.436;2023-04-29T10:53:01;9.20;;;5.03;;
52586;SDS011;38480;52.724;6.436;2023-04-29T10:55:28;8.67;;;4.87;;
52586;SDS011;38480;52.724;6.436;2023-04-29T10:57:54;5.43;;;3.90;;
52586;SDS011;38480;52.724;6.436;2023-04-29T11:00:21;7.77;;;4.40;;
52586;SDS011;38480;52.724;6.436;2023-04-29T11:02:48;7.50;;;4.80;;
52586;SDS011;38480;52.724;6.436;2023-04-29T11:05:14;6.10;;;4.37;;
52586;SDS011;38480;52.724;6.436;2023-04-29T11:07:42;13.50;;;3.93;;
52586;SDS011;38480;52.724;6.436;2023-04-29T11:10:11;7.40;;;4.37;;
52586;SDS011;38480;52.724;6.436;2023-04-29T11:12:37;9.13;;;4.30;;
52586;SDS011;38480;52.724;6.436;2023-04-29T11:15:04;12.47;;;4.63;;
52586;SDS011;38480;52.724;6.436;2023-04-29T11:17:35;6.87;;;3.63;;
52586;SDS011;38480;52.724;6.436;2023-04-29T11:20:02;7.47;;;3.75;;
52586;SDS011;38480;52.724;6.436;2023-04-29T11:22:28;5.88;;;3.67;;
52586;SDS011;38480;52.724;6.436;2023-04-29T11:24:56;6.90;;;3.80;;
52586;SDS011;38480;52.724;6.436;2023-04-29T11:29:58;10.73;;;3.88;;
52586;SDS011;38480;52.724;6.436;2023-04-29T11:32:29;8.98;;;4.20;;
52586;SDS011;38480;52.724;6.436;2023-04-29T11:35:14;8.25;;;3.92;;
52586;SDS011;38480;52.724;6.436;2023-04-29T11:37:41;8.13;;;3.95;;
52586;SDS011;38480;52.724;6.436;2023-04-29T11:40:07;4.88;;;3.67;;
52586;SDS011;38480;52.724;6.436;2023-04-29T11:42:34;6.55;;;4.50;;
52586;SDS011;38480;52.724;6.436;2023-04-29T11:45:01;6.82;;;4.03;;
52586;SDS011;38480;52.724;6.436;2023-04-29T11:47:28;5.05;;;3.58;;
52586;SDS011;38480;52.724;6.436;2023-04-29T11:50:07;5.72;;;3.05;;
52586;SDS011;38480;52.724;6.436;2023-04-29T11:52:34;7.28;;;3.65;;
52586;SDS011;38480;52.724;6.436;2023-04-29T11:55:01;6.22;;;3.78;;
52586;SDS011;38480;52.724;6.436;2023-04-29T11:57:27;8.50;;;3.65;;
52586;SDS011;38480;52.724;6.436;2023-04-29T11:59:54;8.93;;;3.85;;
52586;SDS011;38480;52.724;6.436;2023-04-29T12:02:32;4.60;;;3.30;;
52586;SDS011;38480;52.724;6.436;2023-04-29T12:04:59;7.38;;;3.70;;
52586;SDS011;38480;52.724;6.436;2023-04-29T12:07:26;5.93;;;3.33;;
52586;SDS011;38480;52.724;6.436;2023-04-29T12:09:53;6.18;;;3.70;;
52586;SDS011;38480;52.724;6.436;2023-04-29T12:12:21;4.70;;;3.53;;
52586;SDS011;38480;52.724;6.436;2023-04-29T12:14:47;7.20;;;3.67;;
52586;SDS011;38480;52.724;6.436;2023-04-29T12:17:14;6.38;;;3.47;;
52586;SDS011;38480;52.724;6.436;2023-04-29T12:19:41;6.20;;;3.95;;
52586;SDS011;38480;52.724;6.436;2023-04-29T12:22:08;5.65;;;3.53;;
52586;SDS011;38480;52.724;6.436;2023-04-29T12:24:38;6.22;;;3.22;;
52586;SDS011;38480;52.724;6.436;2023-04-29T12:27:07;5.43;;;3.20;;
52586;SDS011;38480;52.724;6.436;2023-04-29T12:29:34;7.85;;;3.67;;
52586;SDS011;38480;52.724;6.436;2023-04-29T12:32:00;6.78;;;3.22;;
52586;SDS011;38480;52.724;6.436;2023-04-29T12:34:27;4.10;;;2.95;;
52586;SDS011;38480;52.724;6.436;2023-04-29T12:36:59;4.88;;;2.78;;
52586;SDS011;38480;52.724;6.436;2023-04-29T12:39:26;4.22;;;2.80;;
52586;SDS011;38480;52.724;6.436;2023-04-29T12:41:59;5.80;;;2.55;;
52586;SDS011;38480;52.724;6.436;2023-04-29T12:44:33;4.05;;;2.47;;
52586;SDS011;38480;52.724;6.436;2023-04-29T12:47:07;5.93;;;2.25;;
52586;SDS011;38480;52.724;6.436;2023-04-29T12:49:34;4.50;;;2.45;;
52586;SDS011;38480;52.724;6.436;2023-04-29T12:52:01;4.82;;;2.55;;
52586;SDS011;38480;52.724;6.436;2023-04-29T12:54:28;4.30;;;2.60;;
52586;SDS011;38480;52.724;6.436;2023-04-29T12:56:55;4.70;;;2.50;;
52586;SDS011;38480;52.724;6.436;2023-04-29T12:59:21;6.13;;;2.95;;
52586;SDS011;38480;52.724;6.436;2023-04-29T13:01:47;5.40;;;2.58;;
52586;SDS011;38480;52.724;6.436;2023-04-29T13:04:13;5.78;;;2.72;;
52586;SDS011;38480;52.724;6.436;2023-04-29T13:06:39;5.65;;;3.00;;
52586;SDS011;38480;52.724;6.436;2023-04-29T13:09:06;6.20;;;2.70;;
52586;SDS011;38480;52.724;6.436;2023-04-29T13:11:36;7.18;;;3.08;;
52586;SDS011;38480;52.724;6.436;2023-04-29T13:14:03;6.38;;;2.95;;
52586;SDS011;38480;52.724;6.436;2023-04-29T13:16:31;5.32;;;3.08;;
52586;SDS011;38480;52.724;6.436;2023-04-29T13:18:57;6.28;;;2.42;;
52586;SDS011;38480;52.724;6.436;2023-04-29T13:21:23;5.90;;;2.60;;
52586;SDS011;38480;52.724;6.436;2023-04-29T13:23:49;5.55;;;3.00;;
52586;SDS011;38480;52.724;6.436;2023-04-29T13:26:16;5.40;;;2.88;;
52586;SDS011;38480;52.724;6.436;2023-04-29T13:28:42;7.78;;;2.58;;
52586;SDS011;38480;52.724;6.436;2023-04-29T13:31:08;3.60;;;2.40;;
52586;SDS011;38480;52.724;6.436;2023-04-29T13:33:35;5.15;;;2.90;;
52586;SDS011;38480;52.724;6.436;2023-04-29T13:36:01;4.65;;;2.30;;
52586;SDS011;38480;52.724;6.436;2023-04-29T13:38:27;6.30;;;2.40;;
52586;SDS011;38480;52.724;6.436;2023-04-29T13:40:53;5.40;;;2.60;;
52586;SDS011;38480;52.724;6.436;2023-04-29T13:43:20;4.80;;;2.45;;
52586;SDS011;38480;52.724;6.436;2023-04-29T13:45:46;5.13;;;2.05;;
52586;SDS011;38480;52.724;6.436;2023-04-29T13:48:12;5.93;;;2.42;;
52586;SDS011;38480;52.724;6.436;2023-04-29T13:50:39;3.83;;;2.38;;
52586;SDS011;38480;52.724;6.436;2023-04-29T13:53:09;3.85;;;2.03;;
52586;SDS011;38480;52.724;6.436;2023-04-29T13:55:35;7.38;;;2.00;;
52586;SDS011;38480;52.724;6.436;2023-04-29T13:58:01;5.97;;;2.25;;
52586;SDS011;38480;52.724;6.436;2023-04-29T14:00:27;4.78;;;2.58;;
52586;SDS011;38480;52.724;6.436;2023-04-29T14:02:53;4.97;;;2.38;;
52586;SDS011;38480;52.724;6.436;2023-04-29T14:05:20;6.35;;;2.05;;
52586;SDS011;38480;52.724;6.436;2023-04-29T14:07:46;6.75;;;2.00;;
52586;SDS011;38480;52.724;6.436;2023-04-29T14:10:12;6.00;;;2.25;;
52586;SDS011;38480;52.724;6.436;2023-04-29T14:12:38;5.30;;;2.25;;
52586;SDS011;38480;52.724;6.436;2023-04-29T14:15:04;4.32;;;1.88;;
52586;SDS011;38480;52.724;6.436;2023-04-29T14:17:31;3.72;;;2.10;;
52586;SDS011;38480;52.724;6.436;2023-04-29T14:19:57;3.75;;;2.00;;
52586;SDS011;38480;52.724;6.436;2023-04-29T14:22:23;2.97;;;1.85;;
52586;SDS011;38480;52.724;6.436;2023-04-29T14:24:49;5.35;;;2.15;;
52586;SDS011;38480;52.724;6.436;2023-04-29T14:27:15;4.82;;;1.80;;
52586;SDS011;38480;52.724;6.436;2023-04-29T14:29:41;3.05;;;1.65;;
52586;SDS011;38480;52.724;6.436;2023-04-29T14:32:07;3.00;;;1.63;;
52586;SDS011;38480;52.724;6.436;2023-04-29T14:34:33;3.42;;;1.35;;
52586;SDS011;38480;52.724;6.436;2023-04-29T14:36:59;5.10;;;1.50;;
52586;SDS011;38480;52.724;6.436;2023-04-29T14:39:25;4.75;;;1.75;;
52586;SDS011;38480;52.724;6.436;2023-04-29T14:41:51;2.58;;;1.20;;
52586;SDS011;38480;52.724;6.436;2023-04-29T14:44:17;5.15;;;1.70;;
52586;SDS011;38480;52.724;6.436;2023-04-29T14:46:43;3.22;;;1.27;;
52586;SDS011;38480;52.724;6.436;2023-04-29T14:49:09;2.97;;;1.05;;
52586;SDS011;38480;52.724;6.436;2023-04-29T14:51:35;2.03;;;1.25;;
52586;SDS011;38480;52.724;6.436;2023-04-29T14:54:01;2.58;;;1.02;;
52586;SDS011;38480;52.724;6.436;2023-04-29T14:56:27;4.90;;;2.25;;